createdAt,value
2017-12-01T00:04:12.698Z,94657
2017-12-01T00:09:40.825Z,94652
2017-12-01T00:15:08.966Z,94646
2017-12-01T00:20:37.104Z,94654
2017-12-01T00:26:05.225Z,94658
2017-12-01T00:31:33.381Z,94662
2017-12-01T00:37:01.523Z,94665
2017-12-01T00:42:29.673Z,94679
2017-12-01T00:47:57.880Z,94672
2017-12-01T00:53:26.039Z,94679
2017-12-01T00:58:54.230Z,94677
2017-12-01T01:04:22.376Z,94676
2017-12-01T01:09:52.198Z,94694
2017-12-01T01:15:21.123Z,94679
2017-12-01T01:20:49.267Z,94674
2017-12-01T01:26:18.189Z,94695
2017-12-01T01:31:46.945Z,94685
2017-12-01T01:37:15.324Z,94689
2017-12-01T01:42:43.494Z,94696
2017-12-01T01:48:11.944Z,94708
2017-12-01T01:53:40.090Z,94718
2017-12-01T01:59:09.477Z,94723
2017-12-01T02:04:38.394Z,94731
2017-12-01T02:10:06.931Z,94721
2017-12-01T02:15:35.376Z,94713
2017-12-01T02:21:04.860Z,94714
2017-12-01T02:26:33.043Z,94711
2017-12-01T02:32:01.958Z,94715
2017-12-01T02:37:30.123Z,94704
2017-12-01T02:42:58.265Z,94703
2017-12-01T02:48:26.423Z,94709
2017-12-01T02:53:54.598Z,94716
2017-12-01T02:59:22.754Z,94699
2017-12-01T03:04:50.886Z,94705
2017-12-01T03:10:19.803Z,94713
2017-12-01T03:15:47.950Z,94719
2017-12-01T03:21:16.879Z,94710
2017-12-01T03:26:45.005Z,94709
2017-12-01T03:32:13.931Z,94723
2017-12-01T03:37:42.129Z,94731
2017-12-01T03:43:11.006Z,94714
2017-12-01T03:48:54.315Z,94713
2017-12-01T03:54:22.747Z,94714
2017-12-01T03:59:52.149Z,94713
2017-12-01T04:05:21.063Z,94718
2017-12-01T04:11:07.867Z,94718
2017-12-01T04:16:36.010Z,94725
2017-12-01T04:22:04.168Z,94735
2017-12-01T04:27:32.304Z,94738
2017-12-01T04:33:01.221Z,94740
2017-12-01T04:38:29.354Z,94747
2017-12-01T04:44:05.038Z,94754
2017-12-01T04:49:33.191Z,94748
2017-12-01T04:55:02.098Z,94747
2017-12-01T05:00:30.234Z,94749
2017-12-01T05:06:09.922Z,94756
2017-12-01T05:11:38.862Z,94761
2017-12-01T05:17:07.999Z,94768
2017-12-01T05:22:40.120Z,94768
2017-12-01T05:28:08.361Z,94781
2017-12-01T05:33:37.323Z,94779
2017-12-01T05:39:12.168Z,94795
2017-12-01T05:44:40.297Z,94798
2017-12-01T05:50:09.232Z,94799
2017-12-01T05:55:38.990Z,94801
2017-12-01T06:01:07.159Z,94810
2017-12-01T06:06:36.131Z,94811
2017-12-01T06:12:04.262Z,94822
2017-12-01T06:17:32.411Z,94819
2017-12-01T06:23:00.603Z,94830
2017-12-01T06:28:28.722Z,94830
2017-12-01T06:33:56.912Z,94834
2017-12-01T06:39:25.050Z,94840
2017-12-01T06:44:53.968Z,94840
2017-12-01T06:50:22.103Z,94848
2017-12-01T06:55:51.021Z,94854
2017-12-01T07:01:19.179Z,94864
2017-12-01T07:06:47.338Z,94873
2017-12-01T07:12:16.243Z,94869
2017-12-01T07:17:44.382Z,94884
2017-12-01T07:23:12.531Z,94885
2017-12-01T07:28:40.682Z,94893
2017-12-01T07:34:08.828Z,94904
2017-12-01T07:39:36.961Z,94904
2017-12-01T07:45:10.675Z,94929
2017-12-01T07:50:38.823Z,94936
2017-12-01T07:56:06.972Z,94940
2017-12-01T08:01:35.107Z,94941
2017-12-01T08:07:03.268Z,94946
2017-12-01T08:12:31.407Z,94964
2017-12-01T08:18:17.521Z,94969
2017-12-01T08:29:57.952Z,94988
2017-12-01T08:35:26.863Z,94991
2017-12-01T08:40:55.919Z,94990
2017-12-01T08:46:24.961Z,95003
2017-12-01T08:51:53.862Z,95010
2017-12-01T08:57:22.006Z,95018
2017-12-01T09:02:50.144Z,95026
2017-12-01T09:08:19.029Z,95031
2017-12-01T09:13:47.176Z,95039
2017-12-01T09:19:15.319Z,95034
2017-12-01T09:24:44.225Z,95028
2017-12-01T09:30:12.346Z,95043
2017-12-01T09:35:40.484Z,95038
2017-12-01T09:41:09.408Z,95044
2017-12-01T09:46:37.528Z,95040
2017-12-01T09:52:05.656Z,95062
2017-12-01T09:57:34.545Z,95067
2017-12-01T10:03:02.719Z,95065
2017-12-01T10:08:31.638Z,95058
2017-12-01T10:13:59.764Z,95061
2017-12-01T10:19:27.923Z,95071
2017-12-01T10:24:56.087Z,95072
2017-12-01T10:30:24.234Z,95067
2017-12-01T10:35:53.140Z,95073
2017-12-01T10:41:21.266Z,95073
2017-12-01T10:46:49.414Z,95068
2017-12-01T10:52:18.359Z,95069
2017-12-01T10:57:46.466Z,95084
2017-12-01T11:03:14.599Z,95073
2017-12-01T11:08:43.509Z,95082
2017-12-01T11:14:11.633Z,95080
2017-12-01T11:19:39.776Z,95083
2017-12-01T11:25:08.681Z,95090
2017-12-01T11:30:36.805Z,95089
2017-12-01T11:36:04.943Z,95095
2017-12-01T11:41:33.851Z,95092
2017-12-01T11:47:01.999Z,95088
2017-12-01T11:52:30.898Z,95101
2017-12-01T11:57:59.042Z,95101
2017-12-01T12:03:27.223Z,95089
2017-12-01T12:08:55.350Z,95106
2017-12-01T12:14:23.481Z,95125
2017-12-01T12:19:51.609Z,95118
2017-12-01T12:25:19.758Z,95118
2017-12-01T12:30:48.654Z,95124
2017-12-01T12:36:16.798Z,95137
2017-12-01T12:41:44.919Z,95129
2017-12-01T12:47:13.250Z,95124
2017-12-01T12:52:42.163Z,95127
2017-12-01T12:58:10.320Z,95136
2017-12-01T13:03:39.205Z,95146
2017-12-01T13:09:07.358Z,95136
2017-12-01T13:14:35.486Z,95125
2017-12-01T13:20:04.387Z,95127
2017-12-01T13:25:32.521Z,95137
2017-12-01T13:31:00.655Z,95148
2017-12-01T13:36:28.839Z,95149
2017-12-01T13:41:57.051Z,95155
2017-12-01T13:47:25.208Z,95157
2017-12-01T13:52:53.347Z,95172
2017-12-01T13:58:21.489Z,95174
2017-12-01T14:03:50.415Z,95175
2017-12-01T14:09:19.322Z,95186
2017-12-01T14:14:47.454Z,95183
2017-12-01T14:20:15.568Z,95195
2017-12-01T14:25:43.704Z,95203
2017-12-01T14:31:11.848Z,95220
2017-12-01T14:36:39.996Z,95227
2017-12-01T14:42:08.128Z,95222
2017-12-01T14:47:36.254Z,95230
2017-12-01T14:53:04.389Z,95232
2017-12-01T14:58:32.527Z,95246
2017-12-01T15:04:01.432Z,95251
2017-12-01T15:09:29.583Z,95256
2017-12-01T15:14:58.491Z,95265
2017-12-01T15:20:26.660Z,95276
2017-12-01T15:25:54.905Z,95272
2017-12-01T15:31:23.040Z,95286
2017-12-01T15:36:51.183Z,95291
2017-12-01T15:42:19.317Z,95297
2017-12-01T15:47:48.259Z,95299
2017-12-01T15:53:17.147Z,95310
2017-12-01T15:58:45.289Z,95314
2017-12-01T16:04:13.444Z,95321
2017-12-01T16:09:41.570Z,95325
2017-12-01T16:15:09.720Z,95338
2017-12-01T16:20:37.859Z,95340
2017-12-01T16:26:06.000Z,95343
2017-12-01T16:31:34.196Z,95350
2017-12-01T16:37:02.318Z,95351
2017-12-01T16:42:30.452Z,95345
2017-12-01T16:47:58.603Z,95361
2017-12-01T16:53:26.763Z,95367
2017-12-01T16:58:54.922Z,95364
2017-12-01T17:04:23.087Z,95363
2017-12-01T17:09:51.223Z,95373
2017-12-01T17:15:19.364Z,95376
2017-12-01T17:20:47.517Z,95362
2017-12-01T17:26:15.663Z,95371
2017-12-01T17:31:43.822Z,95371
2017-12-01T17:37:11.985Z,95365
2017-12-01T17:42:40.111Z,95368
2017-12-01T17:48:08.258Z,95367
2017-12-01T17:53:36.386Z,95361
2017-12-01T17:59:04.523Z,95368
2017-12-01T18:04:32.694Z,95380
2017-12-01T18:10:00.844Z,95382
2017-12-01T18:15:29.061Z,95393
2017-12-01T18:20:57.216Z,95397
2017-12-01T18:26:25.531Z,95404
2017-12-01T18:31:54.455Z,95411
2017-12-01T18:37:22.708Z,95406
2017-12-01T18:42:51.619Z,95407
2017-12-01T18:48:19.858Z,95424
2017-12-01T18:53:50.881Z,95422
2017-12-01T18:59:19.022Z,95428
2017-12-01T19:04:47.170Z,95428
2017-12-01T19:10:15.300Z,95435
2017-12-01T19:15:43.436Z,95441
2017-12-01T19:21:12.331Z,95443
2017-12-01T19:26:40.468Z,95448
2017-12-01T19:32:08.600Z,95459
2017-12-01T19:37:37.520Z,95460
2017-12-01T19:43:06.549Z,95467
2017-12-01T19:48:34.705Z,95463
2017-12-01T19:54:03.595Z,95468
2017-12-01T19:59:33.692Z,95468
2017-12-01T20:05:01.820Z,95468
2017-12-01T20:10:30.767Z,95466
2017-12-01T20:15:59.711Z,95463
2017-12-01T20:21:27.890Z,95474
2017-12-01T20:27:00.247Z,95483
2017-12-01T20:32:29.171Z,95491
2017-12-01T20:37:57.330Z,95485
2017-12-01T20:43:25.497Z,95501
2017-12-01T20:48:53.735Z,95506
2017-12-01T20:54:22.662Z,95511
2017-12-01T20:59:50.828Z,95510
2017-12-01T21:05:23.531Z,95516
2017-12-01T21:10:51.689Z,95523
2017-12-01T21:16:19.857Z,95525
2017-12-01T21:21:48.764Z,95522
2017-12-01T21:27:16.905Z,95528
2017-12-01T21:32:45.072Z,95524
2017-12-01T21:38:13.214Z,95540
2017-12-01T21:43:41.377Z,95552
2017-12-01T21:49:10.295Z,95549
2017-12-01T21:54:38.487Z,95564
2017-12-01T22:00:06.626Z,95564
2017-12-01T22:05:34.781Z,95574
2017-12-01T22:11:03.690Z,95573
2017-12-01T22:16:31.839Z,95571
2017-12-01T22:22:00.005Z,95590
2017-12-01T22:27:28.172Z,95583
2017-12-01T22:33:03.121Z,95594
2017-12-01T22:38:38.096Z,95595
2017-12-01T22:44:06.267Z,95603
2017-12-01T22:49:34.422Z,95598
2017-12-01T22:55:02.562Z,95596
2017-12-01T23:00:30.719Z,95600
2017-12-01T23:05:58.908Z,95594
2017-12-01T23:11:27.079Z,95603
2017-12-01T23:16:55.220Z,95602
2017-12-01T23:22:23.385Z,95605
2017-12-01T23:27:52.315Z,95607
2017-12-01T23:33:20.457Z,95612
2017-12-01T23:38:48.630Z,95615
2017-12-01T23:44:16.800Z,95617
2017-12-01T23:49:44.940Z,95614
2017-12-01T23:55:13.090Z,95622
